sensor_id;sensor_type;location;lat;lon;timestamp;P1;durP1;ratioP1;P2;durP2;ratioP2
2362;SDS011;1192;51.664;7.626;2022-08-18T00:00:55;1062.18;;;972.83;;
2362;SDS011;1192;51.664;7.626;2022-08-18T00:03:22;1064.03;;;974.47;;
2362;SDS011;1192;51.664;7.626;2022-08-18T00:05:49;1057.75;;;968.55;;
2362;SDS011;1192;51.664;7.626;2022-08-18T00:08:16;1072.20;;;982.47;;
2362;SDS011;1192;51.664;7.626;2022-08-18T00:10:42;1065.35;;;975.65;;
2362;SDS011;1192;51.664;7.626;2022-08-18T00:13:09;1063.68;;;974.08;;
2362;SDS011;1192;51.664;7.626;2022-08-18T00:15:36;1061.45;;;972.15;;
2362;SDS011;1192;51.664;7.626;2022-08-18T00:18:04;1059.90;;;970.55;;
2362;SDS011;1192;51.664;7.626;2022-08-18T00:20:31;1058.68;;;969.40;;
2362;SDS011;1192;51.664;7.626;2022-08-18T00:22:57;1053.85;;;964.80;;
2362;SDS011;1192;51.664;7.626;2022-08-18T00:25:24;1067.90;;;978.38;;
2362;SDS011;1192;51.664;7.626;2022-08-18T00:27:51;1053.40;;;964.38;;
2362;SDS011;1192;51.664;7.626;2022-08-18T00:30:19;1054.57;;;965.47;;
2362;SDS011;1192;51.664;7.626;2022-08-18T00:32:47;1061.68;;;972.38;;
2362;SDS011;1192;51.664;7.626;2022-08-18T00:35:19;1065.93;;;976.47;;
2362;SDS011;1192;51.664;7.626;2022-08-18T00:37:50;1059.65;;;970.17;;
2362;SDS011;1192;51.664;7.626;2022-08-18T00:40:17;1055.85;;;966.53;;
2362;SDS011;1192;51.664;7.626;2022-08-18T00:42:47;1054.13;;;964.92;;
2362;SDS011;1192;51.664;7.626;2022-08-18T00:45:17;1050.35;;;961.55;;
2362;SDS011;1192;51.664;7.626;2022-08-18T00:47:47;1047.60;;;958.20;;
2362;SDS011;1192;51.664;7.626;2022-08-18T00:50:14;1058.93;;;969.55;;
2362;SDS011;1192;51.664;7.626;2022-08-18T00:52:49;1044.13;;;955.08;;
2362;SDS011;1192;51.664;7.626;2022-08-18T00:55:20;1049.35;;;960.35;;
2362;SDS011;1192;51.664;7.626;2022-08-18T00:57:49;1035.70;;;947.25;;
2362;SDS011;1192;51.664;7.626;2022-08-18T01:00:19;1071.53;;;981.63;;
2362;SDS011;1192;51.664;7.626;2022-08-18T01:02:47;1053.93;;;964.58;;
2362;SDS011;1192;51.664;7.626;2022-08-18T01:05:20;1051.43;;;962.30;;
2362;SDS011;1192;51.664;7.626;2022-08-18T01:07:52;1048.30;;;959.28;;
2362;SDS011;1192;51.664;7.626;2022-08-18T01:10:20;1029.50;;;940.92;;
2362;SDS011;1192;51.664;7.626;2022-08-18T01:12:49;1049.47;;;960.08;;
2362;SDS011;1192;51.664;7.626;2022-08-18T01:15:18;1046.82;;;957.47;;
2362;SDS011;1192;51.664;7.626;2022-08-18T01:17:46;1068.30;;;978.28;;
2362;SDS011;1192;51.664;7.626;2022-08-18T01:20:32;1050.28;;;961.13;;
2362;SDS011;1192;51.664;7.626;2022-08-18T01:23:22;1052.15;;;962.67;;
2362;SDS011;1192;51.664;7.626;2022-08-18T01:25:50;1043.25;;;954.38;;
2362;SDS011;1192;51.664;7.626;2022-08-18T01:28:28;1048.05;;;958.97;;
2362;SDS011;1192;51.664;7.626;2022-08-18T01:30:57;1032.20;;;943.75;;
2362;SDS011;1192;51.664;7.626;2022-08-18T01:33:25;1049.80;;;960.80;;
2362;SDS011;1192;51.664;7.626;2022-08-18T01:35:56;1030.20;;;941.80;;
2362;SDS011;1192;51.664;7.626;2022-08-18T01:38:26;1046.45;;;957.42;;
2362;SDS011;1192;51.664;7.626;2022-08-18T01:40:55;1040.28;;;951.55;;
2362;SDS011;1192;51.664;7.626;2022-08-18T01:43:22;1045.35;;;956.42;;
2362;SDS011;1192;51.664;7.626;2022-08-18T01:45:49;1036.55;;;947.75;;
2362;SDS011;1192;51.664;7.626;2022-08-18T01:48:16;1042.68;;;953.75;;
2362;SDS011;1192;51.664;7.626;2022-08-18T01:50:43;1036.50;;;947.60;;
2362;SDS011;1192;51.664;7.626;2022-08-18T01:53:13;1045.18;;;956.38;;
2362;SDS011;1192;51.664;7.626;2022-08-18T01:55:42;1035.43;;;947.15;;
2362;SDS011;1192;51.664;7.626;2022-08-18T01:58:09;1039.05;;;950.40;;
2362;SDS011;1192;51.664;7.626;2022-08-18T02:00:36;1041.70;;;953.03;;
2362;SDS011;1192;51.664;7.626;2022-08-18T02:03:04;1024.53;;;936.40;;
2362;SDS011;1192;51.664;7.626;2022-08-18T02:05:35;1040.10;;;951.53;;
2362;SDS011;1192;51.664;7.626;2022-08-18T02:08:04;1036.07;;;947.78;;
2362;SDS011;1192;51.664;7.626;2022-08-18T02:10:32;1023.63;;;935.53;;
2362;SDS011;1192;51.664;7.626;2022-08-18T02:13:01;1021.65;;;933.83;;
2362;SDS011;1192;51.664;7.626;2022-08-18T02:15:28;1024.60;;;936.50;;
2362;SDS011;1192;51.664;7.626;2022-08-18T02:17:55;1026.25;;;938.22;;
2362;SDS011;1192;51.664;7.626;2022-08-18T02:20:22;1043.00;;;952.92;;
2362;SDS011;1192;51.664;7.626;2022-08-18T02:22:49;1048.05;;;958.22;;
2362;SDS011;1192;51.664;7.626;2022-08-18T02:25:17;1051.60;;;961.63;;
2362;SDS011;1192;51.664;7.626;2022-08-18T02:27:44;1045.03;;;955.10;;
2362;SDS011;1192;51.664;7.626;2022-08-18T02:30:15;1052.65;;;962.63;;
2362;SDS011;1192;51.664;7.626;2022-08-18T02:32:44;1050.85;;;960.88;;
2362;SDS011;1192;51.664;7.626;2022-08-18T02:35:11;1053.65;;;963.28;;
2362;SDS011;1192;51.664;7.626;2022-08-18T02:37:38;1045.25;;;955.42;;
2362;SDS011;1192;51.664;7.626;2022-08-18T02:40:06;1032.28;;;942.97;;
2362;SDS011;1192;51.664;7.626;2022-08-18T02:42:34;1045.95;;;956.00;;
2362;SDS011;1192;51.664;7.626;2022-08-18T02:45:02;1042.85;;;953.13;;
2362;SDS011;1192;51.664;7.626;2022-08-18T02:47:31;1053.63;;;963.40;;
2362;SDS011;1192;51.664;7.626;2022-08-18T02:49:58;1047.32;;;957.53;;
2362;SDS011;1192;51.664;7.626;2022-08-18T02:52:24;1033.68;;;944.42;;
2362;SDS011;1192;51.664;7.626;2022-08-18T02:54:53;1034.18;;;944.88;;
2362;SDS011;1192;51.664;7.626;2022-08-18T02:57:20;1029.07;;;939.83;;
2362;SDS011;1192;51.664;7.626;2022-08-18T02:59:47;1029.25;;;939.90;;
2362;SDS011;1192;51.664;7.626;2022-08-18T03:02:14;1039.70;;;950.00;;
2362;SDS011;1192;51.664;7.626;2022-08-18T03:04:42;1033.78;;;943.85;;
2362;SDS011;1192;51.664;7.626;2022-08-18T03:07:09;1031.82;;;942.50;;
2362;SDS011;1192;51.664;7.626;2022-08-18T03:09:35;1040.45;;;950.50;;
2362;SDS011;1192;51.664;7.626;2022-08-18T03:12:03;1026.57;;;937.28;;
2362;SDS011;1192;51.664;7.626;2022-08-18T03:14:32;1023.90;;;934.78;;
2362;SDS011;1192;51.664;7.626;2022-08-18T03:17:02;1026.93;;;937.53;;
2362;SDS011;1192;51.664;7.626;2022-08-18T03:19:30;1038.07;;;948.42;;
2362;SDS011;1192;51.664;7.626;2022-08-18T03:21:58;1031.35;;;941.67;;
2362;SDS011;1192;51.664;7.626;2022-08-18T03:24:25;1026.00;;;936.47;;
2362;SDS011;1192;51.664;7.626;2022-08-18T03:26:53;1026.43;;;937.20;;
2362;SDS011;1192;51.664;7.626;2022-08-18T03:29:21;1028.72;;;939.40;;
2362;SDS011;1192;51.664;7.626;2022-08-18T03:31:49;1036.43;;;947.13;;
2362;SDS011;1192;51.664;7.626;2022-08-18T03:34:16;1028.70;;;939.17;;
2362;SDS011;1192;51.664;7.626;2022-08-18T03:36:44;1041.50;;;951.80;;
2362;SDS011;1192;51.664;7.626;2022-08-18T03:39:13;1025.60;;;936.47;;
2362;SDS011;1192;51.664;7.626;2022-08-18T03:41:40;1034.10;;;944.53;;
2362;SDS011;1192;51.664;7.626;2022-08-18T03:44:09;1032.55;;;943.03;;
2362;SDS011;1192;51.664;7.626;2022-08-18T03:46:38;1040.35;;;950.72;;
2362;SDS011;1192;51.664;7.626;2022-08-18T03:49:06;1028.88;;;939.42;;
2362;SDS011;1192;51.664;7.626;2022-08-18T03:51:33;1032.28;;;942.80;;
2362;SDS011;1192;51.664;7.626;2022-08-18T03:54:01;1031.50;;;942.13;;
2362;SDS011;1192;51.664;7.626;2022-08-18T03:56:32;1032.85;;;942.83;;
2362;SDS011;1192;51.664;7.626;2022-08-18T03:59:03;1018.78;;;929.65;;
2362;SDS011;1192;51.664;7.626;2022-08-18T04:01:33;1019.28;;;930.17;;
2362;SDS011;1192;51.664;7.626;2022-08-18T04:04:03;1031.82;;;942.35;;
2362;SDS011;1192;51.664;7.626;2022-08-18T04:06:32;1022.30;;;933.17;;
2362;SDS011;1192;51.664;7.626;2022-08-18T04:09:03;1023.63;;;934.20;;
2362;SDS011;1192;51.664;7.626;2022-08-18T04:11:33;1020.28;;;931.00;;
2362;SDS011;1192;51.664;7.626;2022-08-18T04:14:01;1041.25;;;951.45;;
2362;SDS011;1192;51.664;7.626;2022-08-18T04:16:28;1032.22;;;942.65;;
2362;SDS011;1192;51.664;7.626;2022-08-18T04:18:56;1033.43;;;943.60;;
2362;SDS011;1192;51.664;7.626;2022-08-18T04:21:25;1017.90;;;928.70;;
2362;SDS011;1192;51.664;7.626;2022-08-18T04:23:52;1037.40;;;947.60;;
2362;SDS011;1192;51.664;7.626;2022-08-18T04:26:19;1024.30;;;934.60;;
2362;SDS011;1192;51.664;7.626;2022-08-18T04:28:47;1027.43;;;938.15;;
2362;SDS011;1192;51.664;7.626;2022-08-18T04:31:14;1032.43;;;942.67;;
2362;SDS011;1192;51.664;7.626;2022-08-18T04:33:42;1030.88;;;941.10;;
2362;SDS011;1192;51.664;7.626;2022-08-18T04:36:10;1023.40;;;933.70;;
2362;SDS011;1192;51.664;7.626;2022-08-18T04:38:38;1022.67;;;933.05;;
2362;SDS011;1192;51.664;7.626;2022-08-18T04:41:07;1025.63;;;936.22;;
2362;SDS011;1192;51.664;7.626;2022-08-18T04:43:34;1028.55;;;938.58;;
2362;SDS011;1192;51.664;7.626;2022-08-18T04:46:03;1022.97;;;933.38;;
2362;SDS011;1192;51.664;7.626;2022-08-18T04:48:31;1014.88;;;925.03;;
2362;SDS011;1192;51.664;7.626;2022-08-18T04:51:03;1004.70;;;915.75;;
2362;SDS011;1192;51.664;7.626;2022-08-18T04:53:31;1012.08;;;922.72;;
2362;SDS011;1192;51.664;7.626;2022-08-18T04:56:12;1023.20;;;933.60;;
2362;SDS011;1192;51.664;7.626;2022-08-18T04:58:42;1028.10;;;938.22;;
2362;SDS011;1192;51.664;7.626;2022-08-18T05:01:13;1016.40;;;926.83;;
2362;SDS011;1192;51.664;7.626;2022-08-18T05:03:41;1012.83;;;923.63;;
2362;SDS011;1192;51.664;7.626;2022-08-18T05:06:08;1009.97;;;920.47;;
2362;SDS011;1192;51.664;7.626;2022-08-18T05:08:36;1016.75;;;927.42;;
2362;SDS011;1192;51.664;7.626;2022-08-18T05:11:02;1013.33;;;923.78;;
2362;SDS011;1192;51.664;7.626;2022-08-18T05:13:29;1019.17;;;929.40;;
2362;SDS011;1192;51.664;7.626;2022-08-18T05:15:57;1020.70;;;931.03;;
2362;SDS011;1192;51.664;7.626;2022-08-18T05:18:28;1022.75;;;932.75;;
2362;SDS011;1192;51.664;7.626;2022-08-18T05:20:56;1016.17;;;926.72;;
2362;SDS011;1192;51.664;7.626;2022-08-18T05:23:25;1018.78;;;929.00;;
2362;SDS011;1192;51.664;7.626;2022-08-18T05:25:55;1025.05;;;935.20;;
2362;SDS011;1192;51.664;7.626;2022-08-18T05:28:23;1028.22;;;938.22;;
2362;SDS011;1192;51.664;7.626;2022-08-18T05:30:50;1021.03;;;931.00;;
2362;SDS011;1192;51.664;7.626;2022-08-18T05:33:17;1018.28;;;928.50;;
2362;SDS011;1192;51.664;7.626;2022-08-18T05:35:46;1036.18;;;945.95;;
2362;SDS011;1192;51.664;7.626;2022-08-18T05:38:19;1035.60;;;945.03;;
2362;SDS011;1192;51.664;7.626;2022-08-18T05:40:59;1018.65;;;928.90;;
2362;SDS011;1192;51.664;7.626;2022-08-18T05:43:31;1006.63;;;917.40;;
2362;SDS011;1192;51.664;7.626;2022-08-18T05:45:58;1025.97;;;935.78;;
2362;SDS011;1192;51.664;7.626;2022-08-18T05:48:29;1012.03;;;922.50;;
2362;SDS011;1192;51.664;7.626;2022-08-18T05:50:57;1013.92;;;924.45;;
2362;SDS011;1192;51.664;7.626;2022-08-18T05:53:27;1023.95;;;934.15;;
2362;SDS011;1192;51.664;7.626;2022-08-18T05:56:08;1032.38;;;942.08;;
2362;SDS011;1192;51.664;7.626;2022-08-18T05:58:53;1005.42;;;916.15;;
2362;SDS011;1192;51.664;7.626;2022-08-18T06:01:23;1015.90;;;926.42;;
2362;SDS011;1192;51.664;7.626;2022-08-18T06:03:54;1010.67;;;921.30;;
2362;SDS011;1192;51.664;7.626;2022-08-18T06:06:29;1002.85;;;913.28;;
2362;SDS011;1192;51.664;7.626;2022-08-18T06:09:01;1008.83;;;919.15;;
2362;SDS011;1192;51.664;7.626;2022-08-18T06:11:32;1013.67;;;923.75;;
2362;SDS011;1192;51.664;7.626;2022-08-18T06:13:58;1012.28;;;922.75;;
2362;SDS011;1192;51.664;7.626;2022-08-18T06:16:34;1033.20;;;942.80;;
2362;SDS011;1192;51.664;7.626;2022-08-18T06:19:12;1007.65;;;918.30;;
2362;SDS011;1192;51.664;7.626;2022-08-18T06:21:51;1017.05;;;926.92;;
2362;SDS011;1192;51.664;7.626;2022-08-18T06:24:29;1015.65;;;925.67;;
2362;SDS011;1192;51.664;7.626;2022-08-18T06:27:02;1017.90;;;927.67;;
2362;SDS011;1192;51.664;7.626;2022-08-18T06:29:39;1006.90;;;917.10;;
2362;SDS011;1192;51.664;7.626;2022-08-18T06:32:16;1020.17;;;930.10;;
2362;SDS011;1192;51.664;7.626;2022-08-18T06:34:57;1005.28;;;915.58;;
2362;SDS011;1192;51.664;7.626;2022-08-18T06:37:40;1002.42;;;912.97;;
2362;SDS011;1192;51.664;7.626;2022-08-18T06:40:25;994.75;;;905.67;;
2362;SDS011;1192;51.664;7.626;2022-08-18T06:42:51;1004.20;;;914.42;;
2362;SDS011;1192;51.664;7.626;2022-08-18T06:45:30;1009.65;;;919.85;;
2362;SDS011;1192;51.664;7.626;2022-08-18T06:48:02;1012.22;;;922.00;;
2362;SDS011;1192;51.664;7.626;2022-08-18T06:50:36;1012.92;;;922.80;;
2362;SDS011;1192;51.664;7.626;2022-08-18T06:53:12;1007.85;;;917.97;;
2362;SDS011;1192;51.664;7.626;2022-08-18T06:55:40;1008.88;;;919.03;;
2362;SDS011;1192;51.664;7.626;2022-08-18T06:58:19;1007.78;;;917.60;;
2362;SDS011;1192;51.664;7.626;2022-08-18T07:00:53;1006.88;;;917.35;;
2362;SDS011;1192;51.664;7.626;2022-08-18T07:03:23;1013.33;;;922.67;;
2362;SDS011;1192;51.664;7.626;2022-08-18T07:06:08;997.63;;;907.83;;
2362;SDS011;1192;51.664;7.626;2022-08-18T07:08:37;1011.58;;;921.58;;
2362;SDS011;1192;51.664;7.626;2022-08-18T07:11:12;1003.38;;;913.63;;
2362;SDS011;1192;51.664;7.626;2022-08-18T07:13:44;1010.83;;;920.95;;
2362;SDS011;1192;51.664;7.626;2022-08-18T07:16:14;1026.55;;;936.13;;
2362;SDS011;1192;51.664;7.626;2022-08-18T07:18:42;1005.10;;;914.95;;
2362;SDS011;1192;51.664;7.626;2022-08-18T07:21:10;1017.90;;;927.53;;
2362;SDS011;1192;51.664;7.626;2022-08-18T07:23:58;992.00;;;902.95;;
2362;SDS011;1192;51.664;7.626;2022-08-18T07:26:26;994.80;;;905.17;;
2362;SDS011;1192;51.664;7.626;2022-08-18T07:28:53;1006.05;;;916.53;;
2362;SDS011;1192;51.664;7.626;2022-08-18T07:31:30;1005.90;;;916.33;;
2362;SDS011;1192;51.664;7.626;2022-08-18T07:34:10;1003.53;;;913.78;;
2362;SDS011;1192;51.664;7.626;2022-08-18T07:36:41;996.55;;;907.15;;
2362;SDS011;1192;51.664;7.626;2022-08-18T07:39:14;996.22;;;906.95;;
2362;SDS011;1192;51.664;7.626;2022-08-18T07:41:49;1008.95;;;919.22;;
2362;SDS011;1192;51.664;7.626;2022-08-18T07:44:24;1008.72;;;919.10;;
2362;SDS011;1192;51.664;7.626;2022-08-18T07:47:00;1013.90;;;923.42;;
2362;SDS011;1192;51.664;7.626;2022-08-18T07:49:31;1016.40;;;925.20;;
2362;SDS011;1192;51.664;7.626;2022-08-18T07:52:02;1003.88;;;913.17;;
2362;SDS011;1192;51.664;7.626;2022-08-18T07:54:37;999.45;;;909.38;;
2362;SDS011;1192;51.664;7.626;2022-08-18T07:57:11;1026.25;;;935.35;;
2362;SDS011;1192;51.664;7.626;2022-08-18T07:59:46;1009.80;;;919.08;;
2362;SDS011;1192;51.664;7.626;2022-08-18T08:02:19;1011.08;;;920.38;;
2362;SDS011;1192;51.664;7.626;2022-08-18T08:05:06;1015.47;;;925.20;;
2362;SDS011;1192;51.664;7.626;2022-08-18T08:07:39;1008.17;;;918.55;;
2362;SDS011;1192;51.664;7.626;2022-08-18T08:10:20;1009.30;;;919.63;;
2362;SDS011;1192;51.664;7.626;2022-08-18T08:13:02;1007.17;;;916.83;;
2362;SDS011;1192;51.664;7.626;2022-08-18T08:15:45;1013.13;;;922.78;;
2362;SDS011;1192;51.664;7.626;2022-08-18T08:18:21;1017.30;;;927.03;;
2362;SDS011;1192;51.664;7.626;2022-08-18T08:20:58;1013.78;;;924.03;;
2362;SDS011;1192;51.664;7.626;2022-08-18T08:23:29;1008.45;;;918.35;;
2362;SDS011;1192;51.664;7.626;2022-08-18T08:26:07;1012.58;;;922.72;;
2362;SDS011;1192;51.664;7.626;2022-08-18T08:29:07;1009.78;;;919.72;;
2362;SDS011;1192;51.664;7.626;2022-08-18T08:31:44;1017.17;;;926.97;;
2362;SDS011;1192;51.664;7.626;2022-08-18T08:34:17;1015.78;;;925.78;;
2362;SDS011;1192;51.664;7.626;2022-08-18T08:36:51;1005.70;;;916.38;;
2362;SDS011;1192;51.664;7.626;2022-08-18T08:39:25;998.00;;;908.53;;
2362;SDS011;1192;51.664;7.626;2022-08-18T08:42:05;1027.78;;;937.50;;
2362;SDS011;1192;51.664;7.626;2022-08-18T08:44:37;1012.75;;;922.63;;
2362;SDS011;1192;51.664;7.626;2022-08-18T08:47:09;1004.80;;;915.50;;
2362;SDS011;1192;51.664;7.626;2022-08-18T08:49:43;1006.97;;;917.47;;
2362;SDS011;1192;51.664;7.626;2022-08-18T08:52:16;1010.92;;;921.22;;
2362;SDS011;1192;51.664;7.626;2022-08-18T08:54:47;1028.32;;;938.05;;
2362;SDS011;1192;51.664;7.626;2022-08-18T08:57:19;1018.15;;;928.65;;
2362;SDS011;1192;51.664;7.626;2022-08-18T08:59:50;1014.70;;;925.35;;
2362;SDS011;1192;51.664;7.626;2022-08-18T09:05:24;999.60;;;910.13;;
2362;SDS011;1192;51.664;7.626;2022-08-18T09:10:59;1026.53;;;936.47;;
2362;SDS011;1192;51.664;7.626;2022-08-18T09:13:52;1003.60;;;914.40;;
2362;SDS011;1192;51.664;7.626;2022-08-18T09:16:45;1015.92;;;926.42;;
2362;SDS011;1192;51.664;7.626;2022-08-18T09:19:26;1003.38;;;914.30;;
2362;SDS011;1192;51.664;7.626;2022-08-18T09:22:15;1014.25;;;924.53;;
2362;SDS011;1192;51.664;7.626;2022-08-18T09:24:50;1009.83;;;920.83;;
2362;SDS011;1192;51.664;7.626;2022-08-18T09:27:31;1001.58;;;912.70;;
2362;SDS011;1192;51.664;7.626;2022-08-18T09:30:07;999.83;;;910.85;;
2362;SDS011;1192;51.664;7.626;2022-08-18T09:32:56;1002.65;;;913.58;;
2362;SDS011;1192;51.664;7.626;2022-08-18T09:38:31;1019.97;;;930.30;;
2362;SDS011;1192;51.664;7.626;2022-08-18T09:41:20;1015.28;;;926.28;;
2362;SDS011;1192;51.664;7.626;2022-08-18T09:44:00;997.03;;;908.33;;
2362;SDS011;1192;51.664;7.626;2022-08-18T09:46:48;998.17;;;909.42;;
2362;SDS011;1192;51.664;7.626;2022-08-18T09:49:37;1001.50;;;912.50;;
2362;SDS011;1192;51.664;7.626;2022-08-18T09:58:19;1008.95;;;920.28;;
2362;SDS011;1192;51.664;7.626;2022-08-18T10:01:20;1010.83;;;921.63;;
2362;SDS011;1192;51.664;7.626;2022-08-18T10:06:46;1029.25;;;939.78;;
2362;SDS011;1192;51.664;7.626;2022-08-18T10:09:25;1015.92;;;926.58;;
2362;SDS011;1192;51.664;7.626;2022-08-18T10:12:04;1014.20;;;925.35;;
2362;SDS011;1192;51.664;7.626;2022-08-18T10:17:42;1012.15;;;923.40;;
2362;SDS011;1192;51.664;7.626;2022-08-18T10:20:26;1010.17;;;921.28;;
2362;SDS011;1192;51.664;7.626;2022-08-18T10:23:02;1007.17;;;918.20;;
2362;SDS011;1192;51.664;7.626;2022-08-18T10:25:32;1020.80;;;931.53;;
2362;SDS011;1192;51.664;7.626;2022-08-18T10:28:03;1026.88;;;937.40;;
2362;SDS011;1192;51.664;7.626;2022-08-18T10:30:47;1023.78;;;934.67;;
2362;SDS011;1192;51.664;7.626;2022-08-18T10:39:18;1006.13;;;917.78;;
2362;SDS011;1192;51.664;7.626;2022-08-18T10:41:50;1022.95;;;933.97;;
2362;SDS011;1192;51.664;7.626;2022-08-18T10:44:23;1021.53;;;932.53;;
2362;SDS011;1192;51.664;7.626;2022-08-18T10:46:52;1013.35;;;924.50;;
2362;SDS011;1192;51.664;7.626;2022-08-18T10:49:22;1022.20;;;932.75;;
2362;SDS011;1192;51.664;7.626;2022-08-18T10:54:57;1032.57;;;943.17;;
2362;SDS011;1192;51.664;7.626;2022-08-18T10:57:42;1018.95;;;929.97;;
2362;SDS011;1192;51.664;7.626;2022-08-18T11:00:33;1025.25;;;935.90;;
2362;SDS011;1192;51.664;7.626;2022-08-18T11:03:11;1035.70;;;945.88;;
2362;SDS011;1192;51.664;7.626;2022-08-18T11:05:46;1029.55;;;940.33;;
2362;SDS011;1192;51.664;7.626;2022-08-18T11:08:14;1028.68;;;939.15;;
2362;SDS011;1192;51.664;7.626;2022-08-18T11:10:48;1049.28;;;959.22;;
2362;SDS011;1192;51.664;7.626;2022-08-18T11:13:16;1028.40;;;939.25;;
2362;SDS011;1192;51.664;7.626;2022-08-18T11:15:55;1047.57;;;957.58;;
2362;SDS011;1192;51.664;7.626;2022-08-18T11:18:30;1051.60;;;961.65;;
2362;SDS011;1192;51.664;7.626;2022-08-18T11:24:04;1043.43;;;953.33;;
2362;SDS011;1192;51.664;7.626;2022-08-18T11:26:35;1022.17;;;933.20;;
2362;SDS011;1192;51.664;7.626;2022-08-18T11:29:17;1037.75;;;948.17;;
2362;SDS011;1192;51.664;7.626;2022-08-18T11:31:46;1016.72;;;928.05;;
2362;SDS011;1192;51.664;7.626;2022-08-18T11:34:15;1061.40;;;970.97;;
2362;SDS011;1192;51.664;7.626;2022-08-18T11:36:52;1033.75;;;944.38;;
2362;SDS011;1192;51.664;7.626;2022-08-18T11:39:21;1044.97;;;955.28;;
2362;SDS011;1192;51.664;7.626;2022-08-18T11:41:50;1051.50;;;961.40;;
2362;SDS011;1192;51.664;7.626;2022-08-18T11:44:18;1045.68;;;956.25;;
2362;SDS011;1192;51.664;7.626;2022-08-18T11:46:48;1053.35;;;963.33;;
2362;SDS011;1192;51.664;7.626;2022-08-18T11:49:24;1051.40;;;961.65;;
2362;SDS011;1192;51.664;7.626;2022-08-18T11:51:58;1054.20;;;964.22;;
2362;SDS011;1192;51.664;7.626;2022-08-18T11:54:34;1048.70;;;959.15;;
2362;SDS011;1192;51.664;7.626;2022-08-18T12:03:18;1044.50;;;955.10;;
2362;SDS011;1192;51.664;7.626;2022-08-18T12:05:53;1041.07;;;951.55;;
2362;SDS011;1192;51.664;7.626;2022-08-18T12:08:25;1055.22;;;965.13;;
2362;SDS011;1192;51.664;7.626;2022-08-18T12:11:03;1065.60;;;974.97;;
2362;SDS011;1192;51.664;7.626;2022-08-18T12:13:32;1053.13;;;963.15;;
2362;SDS011;1192;51.664;7.626;2022-08-18T12:16:10;1060.25;;;969.95;;
2362;SDS011;1192;51.664;7.626;2022-08-18T12:18:41;1051.45;;;961.30;;
2362;SDS011;1192;51.664;7.626;2022-08-18T12:21:08;1063.30;;;972.67;;
2362;SDS011;1192;51.664;7.626;2022-08-18T12:23:36;1069.47;;;978.63;;
2362;SDS011;1192;51.664;7.626;2022-08-18T12:26:06;1052.40;;;962.15;;
2362;SDS011;1192;51.664;7.626;2022-08-18T12:28:33;1060.20;;;969.92;;
2362;SDS011;1192;51.664;7.626;2022-08-18T12:30:59;1075.97;;;985.17;;
2362;SDS011;1192;51.664;7.626;2022-08-18T12:33:26;1064.28;;;973.92;;
2362;SDS011;1192;51.664;7.626;2022-08-18T12:35:54;1057.63;;;967.53;;
2362;SDS011;1192;51.664;7.626;2022-08-18T12:38:21;1076.78;;;985.95;;
2362;SDS011;1192;51.664;7.626;2022-08-18T12:40:48;1080.60;;;989.38;;
2362;SDS011;1192;51.664;7.626;2022-08-18T12:43:15;1060.57;;;970.53;;
2362;SDS011;1192;51.664;7.626;2022-08-18T12:45:42;1058.30;;;968.50;;
2362;SDS011;1192;51.664;7.626;2022-08-18T12:48:08;1079.10;;;988.22;;
2362;SDS011;1192;51.664;7.626;2022-08-18T12:50:36;1068.30;;;977.85;;
2362;SDS011;1192;51.664;7.626;2022-08-18T12:53:05;1064.00;;;973.42;;
2362;SDS011;1192;51.664;7.626;2022-08-18T12:55:33;1073.10;;;982.63;;
2362;SDS011;1192;51.664;7.626;2022-08-18T12:58:03;1076.95;;;986.15;;
2362;SDS011;1192;51.664;7.626;2022-08-18T13:00:30;1067.60;;;977.08;;
2362;SDS011;1192;51.664;7.626;2022-08-18T13:02:57;1062.80;;;972.80;;
2362;SDS011;1192;51.664;7.626;2022-08-18T13:05:24;1069.93;;;979.30;;
2362;SDS011;1192;51.664;7.626;2022-08-18T13:07:52;1059.90;;;969.97;;
2362;SDS011;1192;51.664;7.626;2022-08-18T13:10:20;1076.35;;;985.60;;
2362;SDS011;1192;51.664;7.626;2022-08-18T13:12:47;1063.43;;;973.25;;
2362;SDS011;1192;51.664;7.626;2022-08-18T13:15:14;1069.10;;;978.60;;
2362;SDS011;1192;51.664;7.626;2022-08-18T13:17:40;1072.90;;;982.40;;
2362;SDS011;1192;51.664;7.626;2022-08-18T13:20:09;1077.28;;;986.50;;
2362;SDS011;1192;51.664;7.626;2022-08-18T13:22:38;1060.82;;;970.90;;
2362;SDS011;1192;51.664;7.626;2022-08-18T13:25:05;1071.57;;;981.00;;
2362;SDS011;1192;51.664;7.626;2022-08-18T13:27:35;1067.30;;;977.00;;
2362;SDS011;1192;51.664;7.626;2022-08-18T13:30:05;1073.20;;;982.80;;
2362;SDS011;1192;51.664;7.626;2022-08-18T13:32:35;1087.63;;;995.00;;
2362;SDS011;1192;51.664;7.626;2022-08-18T13:35:02;1080.68;;;989.97;;
2362;SDS011;1192;51.664;7.626;2022-08-18T13:37:29;1076.57;;;985.95;;
2362;SDS011;1192;51.664;7.626;2022-08-18T13:39:57;1079.82;;;988.72;;
2362;SDS011;1192;51.664;7.626;2022-08-18T13:42:24;1071.30;;;980.77;;
2362;SDS011;1192;51.664;7.626;2022-08-18T13:44:54;1078.95;;;988.17;;
2362;SDS011;1192;51.664;7.626;2022-08-18T13:47:24;1067.13;;;976.93;;
2362;SDS011;1192;51.664;7.626;2022-08-18T13:49:53;1069.80;;;979.58;;
2362;SDS011;1192;51.664;7.626;2022-08-18T13:52:20;1081.47;;;990.73;;
2362;SDS011;1192;51.664;7.626;2022-08-18T13:54:46;1073.43;;;983.08;;
2362;SDS011;1192;51.664;7.626;2022-08-18T13:57:13;1081.87;;;991.13;;
2362;SDS011;1192;51.664;7.626;2022-08-18T13:59:40;1071.80;;;981.40;;
2362;SDS011;1192;51.664;7.626;2022-08-18T14:02:09;1069.13;;;979.03;;
2362;SDS011;1192;51.664;7.626;2022-08-18T14:04:36;1071.45;;;981.20;;
2362;SDS011;1192;51.664;7.626;2022-08-18T14:07:03;1080.40;;;989.83;;
2362;SDS011;1192;51.664;7.626;2022-08-18T14:09:33;1075.13;;;984.87;;
2362;SDS011;1192;51.664;7.626;2022-08-18T14:12:01;1089.17;;;996.60;;
2362;SDS011;1192;51.664;7.626;2022-08-18T14:14:29;1075.15;;;984.45;;
2362;SDS011;1192;51.664;7.626;2022-08-18T14:16:57;1077.70;;;987.20;;
2362;SDS011;1192;51.664;7.626;2022-08-18T14:19:25;1082.93;;;992.23;;
2362;SDS011;1192;51.664;7.626;2022-08-18T14:22:10;1080.37;;;989.90;;
2362;SDS011;1192;51.664;7.626;2022-08-18T14:24:54;1078.07;;;987.55;;
2362;SDS011;1192;51.664;7.626;2022-08-18T14:27:38;1080.10;;;989.43;;
2362;SDS011;1192;51.664;7.626;2022-08-18T14:30:06;1078.77;;;988.17;;
2362;SDS011;1192;51.664;7.626;2022-08-18T14:32:34;1082.13;;;991.37;;
2362;SDS011;1192;51.664;7.626;2022-08-18T14:35:04;1077.93;;;987.43;;
2362;SDS011;1192;51.664;7.626;2022-08-18T14:37:32;1076.07;;;985.57;;
2362;SDS011;1192;51.664;7.626;2022-08-18T14:39:59;1083.10;;;992.63;;
2362;SDS011;1192;51.664;7.626;2022-08-18T14:42:25;1085.57;;;994.23;;
2362;SDS011;1192;51.664;7.626;2022-08-18T14:44:53;1092.03;;;998.13;;
2362;SDS011;1192;51.664;7.626;2022-08-18T14:47:21;1079.00;;;988.63;;
2362;SDS011;1192;51.664;7.626;2022-08-18T14:49:54;1077.93;;;987.63;;
2362;SDS011;1192;51.664;7.626;2022-08-18T14:52:23;1086.07;;;994.87;;
2362;SDS011;1192;51.664;7.626;2022-08-18T14:54:51;1078.47;;;987.97;;
2362;SDS011;1192;51.664;7.626;2022-08-18T14:57:19;1076.13;;;985.83;;
2362;SDS011;1192;51.664;7.626;2022-08-18T14:59:45;1073.88;;;983.67;;
2362;SDS011;1192;51.664;7.626;2022-08-18T15:02:12;1082.87;;;992.40;;
2362;SDS011;1192;51.664;7.626;2022-08-18T15:04:39;1069.20;;;979.10;;
2362;SDS011;1192;51.664;7.626;2022-08-18T15:07:06;1072.70;;;982.53;;
2362;SDS011;1192;51.664;7.626;2022-08-18T15:09:34;1088.40;;;996.13;;
2362;SDS011;1192;51.664;7.626;2022-08-18T15:12:01;1083.87;;;993.33;;